Time;durP1;ratioP1;P1;durP2;ratioP2;P2;SDS_P1;SDS_P2;PMS_P1;PMS_P2;Temp;Humidity;BMP_temperature;BMP_pressure;BME280_temperature;BME280_humidity;BME280_pressure;Samples;Min_cycle;Max_cycle;Signal;HPM_P1;HPM_P2
2024/01/08 00:00:46;;;;;;;13.10;8.48;;;;;;;9.98;100.00;97115.19;5131973;27;20027;-81
2024/01/08 00:03:11;;;;;;;15.18;9.00;;;;;;;9.98;100.00;97108.91;5122658;27;20069;-81
2024/01/08 00:05:41;;;;;;;13.07;8.48;;;;;;;10.55;100.00;97201.41;5129359;27;20026;-80
2024/01/08 00:08:07;;;;;;;13.90;8.18;;;;;;;10.36;100.00;97182.72;5122518;27;20023;-80
2024/01/08 00:10:32;;;;;;;15.32;8.43;;;;;;;10.33;100.00;97189.94;5129732;27;20030;-83
2024/01/08 00:12:58;;;;;;;13.63;8.73;;;;;;;9.57;100.00;97092.03;5134104;27;20019;-81
2024/01/08 00:15:23;;;;;;;17.77;8.68;;;;;;;10.31;100.00;97213.75;5133752;27;20022;-80
2024/01/08 00:17:49;;;;;;;14.95;8.55;;;;;;;10.29;100.00;97191.34;5124416;27;20024;-81
2024/01/08 00:20:15;;;;;;;;;;;;;;;10.53;100.00;97214.19;5128913;27;20127;-80
2024/01/08 00:22:41;;;;;;;;;;;;;;;10.50;100.00;97217.88;5134745;27;20388;-80
2024/01/08 00:25:06;;;;;;;;;;;;;;;10.54;100.00;97222.00;5130421;27;19922;-81
2024/01/08 00:27:32;;;;;;;;;;;;;;;10.51;100.00;97222.16;5114072;28;19912;-80
2024/01/08 00:29:58;;;;;;;;;;;;;;;10.50;100.00;97221.41;5112151;28;19914;-81
2024/01/08 00:32:24;;;;;;;;;;;;;;;10.36;100.00;97224.13;5114036;28;20338;-81
2024/01/08 00:34:49;;;;;;;;;;;;;;;10.32;100.00;97224.28;5128944;27;19919;-81
2024/01/08 00:37:14;;;;;;;;;;;;;;;10.41;100.00;97224.25;5133062;27;19915;-81
2024/01/08 00:39:39;;;;;;;;;;;;;;;10.44;100.00;97222.50;5132394;27;20470;-81
2024/01/08 00:42:05;;;;;;;;;;;;;;;10.46;100.00;97226.34;5123363;27;19915;-80
2024/01/08 00:44:30;;;;;;;;;;;;;;;10.30;100.00;97229.53;5112101;28;20006;-80
2024/01/08 00:46:55;;;;;;;;;;;;;;;10.31;100.00;97227.53;5122614;27;19912;-80
2024/01/08 00:49:20;;;;;;;;;;;;;;;10.32;100.00;97231.81;5132915;27;19945;-80
2024/01/08 00:51:46;;;;;;;;;;;;;;;10.28;100.00;97239.50;5124811;27;19972;-80
2024/01/08 00:54:11;;;;;;;;;;;;;;;10.27;100.00;97237.97;5125935;27;19958;-80
2024/01/08 00:56:37;;;;;;;;;;;;;;;10.31;100.00;97241.34;5122857;27;19961;-81
2024/01/08 00:59:02;;;;;;;;;;;;;;;10.37;100.00;97237.44;5130804;27;20021;-81
2024/01/08 01:01:28;;;;;;;;;;;;;;;10.35;100.00;97248.19;5114397;28;19918;-80
2024/01/08 01:03:53;;;;;;;;;;;;;;;10.41;100.00;97242.78;5124128;27;19911;-83
2024/01/08 01:06:19;;;;;;;;;;;;;;;10.40;100.00;97244.03;5135418;27;20011;-80
2024/01/08 01:08:44;;;;;;;;;;;;;;;10.33;100.00;97236.84;5121218;27;19919;-80
2024/01/08 01:11:09;;;;;;;;;;;;;;;10.24;100.00;97236.16;5132087;27;20308;-80
2024/01/08 01:13:35;;;;;;;;;;;;;;;10.18;100.00;97247.84;5115928;27;19964;-81
2024/01/08 01:16:00;;;;;;;;;;;;;;;10.23;100.00;97242.91;5121423;27;20410;-80
2024/01/08 01:18:25;;;;;;;;;;;;;;;10.11;100.00;97245.41;5119684;27;19911;-81
2024/01/08 01:20:50;;;;;;;;;;;;;;;10.11;100.00;97242.66;5132132;27;19907;-80
2024/01/08 01:23:16;;;;;;;;;;;;;;;10.19;100.00;97234.78;5132784;27;19917;-81
2024/01/08 01:25:41;;;;;;;;;;;;;;;10.15;100.00;97237.72;5133362;27;19912;-80
2024/01/08 01:28:07;;;;;;;;;;;;;;;10.19;100.00;97237.56;5131487;27;19907;-80
2024/01/08 01:30:32;;;;;;;;;;;;;;;10.19;100.00;97237.56;5133070;27;19958;-81
2024/01/08 01:32:58;;;;;;;;;;;;;;;10.20;100.00;97242.63;5118117;27;19951;-81
2024/01/08 01:35:23;;;;;;;;;;;;;;;10.25;100.00;97243.22;5118828;27;19911;-80
2024/01/08 01:37:48;;;;;;;;;;;;;;;10.28;100.00;97248.56;5118459;27;19954;-80
2024/01/08 01:40:13;;;;;;;;;;;;;;;10.18;100.00;97242.34;5112635;28;19908;-80
2024/01/08 01:42:39;;;;;;;;;;;;;;;10.22;100.00;97239.38;5112739;27;20440;-80
2024/01/08 01:45:05;;;;;;;;;;;;;;;10.19;100.00;97237.56;5132636;27;19911;-80
2024/01/08 01:47:32;;;;;;;;;;;;;;;10.15;100.00;97245.22;5131396;27;20368;-80
2024/01/08 01:49:57;;;;;;;;;;;;;;;10.12;100.00;97244.19;5131269;27;19907;-81
2024/01/08 01:52:23;;;;;;;;;;;;;;;10.08;100.00;97243.56;5132422;27;20452;-80
2024/01/08 01:54:50;;;;;;;;;;;;;;;10.15;100.00;97250.75;5133129;27;19909;-80
2024/01/08 01:57:15;;;;;;;;;;;;;;;10.16;100.00;97249.50;5130816;27;19990;-80
2024/01/08 01:59:41;;;;;;;;;;;;;;;10.13;100.00;97239.41;5131248;27;20002;-81
2024/01/08 02:02:07;;;;;;;;;;;;;;;10.20;100.00;97241.84;5132623;27;19907;-80
2024/01/08 02:04:32;;;;;;;;;;;;;;;10.16;100.00;97253.06;5131710;27;19922;-80
2024/01/08 02:06:59;;;;;;;;;;;;;;;10.21;100.00;97259.94;5131612;27;19912;-81
2024/01/08 02:09:24;;;;;;;;;;;;;;;10.22;100.00;97255.94;5131456;27;20292;-81
2024/01/08 02:11:50;;;;;;;;;;;;;;;10.20;100.00;97253.66;5132204;27;20365;-80
2024/01/08 02:14:15;;;;;;;;;;;;;;;10.18;100.00;97258.13;5132686;27;19911;-81
2024/01/08 02:16:41;;;;;;;;;;;;;;;10.14;100.00;97260.25;5117626;27;19922;-80
2024/01/08 02:19:08;;;;;;;;;;;;;;;10.13;100.00;97253.19;5124003;27;19941;-80
2024/01/08 02:21:34;;;;;;;;;;;;;;;10.12;100.00;97263.50;5112993;28;19914;-79
2024/01/08 02:23:59;;;;;;;;;;;;;;;10.19;100.00;97273.44;5133849;27;19911;-81
2024/01/08 02:26:25;;;;;;;;;;;;;;;10.17;100.00;97265.63;5134972;27;19961;-80
2024/01/08 02:28:50;;;;;;;;;;;;;;;10.13;100.00;97270.53;5127664;27;19919;-80
2024/01/08 02:31:17;;;;;;;;;;;;;;;10.20;100.00;97266.69;5130253;27;19919;-80
2024/01/08 02:33:42;;;;;;;;;;;;;;;10.06;100.00;97273.66;5135769;27;19911;-80
2024/01/08 02:36:08;;;;;;;;;;;;;;;10.10;100.00;97270.72;5134809;27;19918;-81
2024/01/08 02:38:33;;;;;;;;;;;;;;;10.03;100.00;97271.03;5136260;27;19912;-80
2024/01/08 02:40:59;;;;;;;;;;;;;;;10.06;100.00;97270.88;5134925;27;19911;-80
2024/01/08 02:43:24;;;;;;;;;;;;;;;10.08;100.00;97275.91;5129089;27;20299;-80
2024/01/08 02:45:50;;;;;;;;;;;;;;;10.06;100.00;97279.16;5115767;28;19911;-81
2024/01/08 02:48:15;;;;;;;;;;;;;;;9.99;100.00;97275.97;5115616;28;19908;-80
2024/01/08 02:50:41;;;;;;;;;;;;;;;10.01;100.00;97282.53;5128199;27;19962;-80
2024/01/08 02:53:06;;;;;;;;;;;;;;;9.96;100.00;97283.19;5135089;27;19953;-80
2024/01/08 02:55:31;;;;;;;;;;;;;;;9.92;100.00;97281.81;5135051;27;19911;-80
2024/01/08 02:57:57;;;;;;;;;;;;;;;9.93;100.00;97283.34;5136108;27;20388;-80
2024/01/08 03:00:22;;;;;;;;;;;;;;;9.84;100.00;97280.63;5134899;27;19917;-80
2024/01/08 03:02:47;;;;;;;;;;;;;;;9.85;100.00;97284.91;5127725;27;19957;-80
2024/01/08 03:05:12;;;;;;;;;;;;;;;9.82;100.00;97292.88;5127614;27;19961;-80
2024/01/08 03:07:38;;;;;;;;;;;;;;;9.85;100.00;97298.72;5121837;27;19911;-81
2024/01/08 03:10:03;;;;;;;;;;;;;;;9.85;100.00;97293.97;5136030;27;19983;-80
2024/01/08 03:12:28;;;;;;;;;;;;;;;9.78;100.00;97305.31;5100026;28;19919;-80
2024/01/08 03:14:54;;;;;;;;;;;;;;;9.87;100.00;97294.28;5126646;27;19932;-80
2024/01/08 03:17:19;;;;;;;;;;;;;;;9.96;100.00;97296.22;5134493;27;19911;-82
2024/01/08 03:19:44;;;;;;;;;;;;;;;9.98;100.00;97302.81;5135507;27;19911;-80
2024/01/08 03:22:10;;;;;;;;;;;;;;;9.99;100.00;97304.34;5133788;27;19907;-80
2024/01/08 03:24:36;;;;;;;;;;;;;;;9.93;100.00;97311.72;5134513;27;19912;-80
2024/01/08 03:27:04;;;;;;;;;;;;;;;9.91;100.00;97310.66;5128757;27;19935;-80
2024/01/08 03:29:30;;;;;;;;;;;;;;;9.88;100.00;97314.34;5126717;27;19907;-80
2024/01/08 03:31:55;;;;;;;;;;;;;;;9.93;100.00;97320.00;5135457;27;19913;-79
2024/01/08 03:34:20;;;;;;;;;;;;;;;9.95;100.00;97319.50;5134238;27;19907;-81
2024/01/08 03:36:47;;;;;;;;;;;;;;;10.00;100.00;97321.66;5120108;27;19911;-80
2024/01/08 03:39:17;;;;;;;;;;;;;;;10.04;100.00;97319.47;5135538;27;19913;-82
2024/01/08 03:41:42;;;;;;;;;;;;;;;9.94;100.00;97320.75;5120280;27;20471;-80
2024/01/08 03:44:08;;;;;;;;;;;;;;;9.78;100.00;97322.63;5134331;27;20030;-80
2024/01/08 03:46:34;;;;;;;;;;;;;;;9.78;100.00;97319.09;5133808;27;19911;-80
2024/01/08 03:49:02;;;;;;;;;;;;;;;9.79;100.00;97320.66;5133759;27;19914;-81
2024/01/08 03:51:27;;;;;;;;;;;;;;;9.75;100.00;97331.84;5126588;27;19920;-80
2024/01/08 03:53:53;;;;;;;;;;;;;;;9.81;100.00;97337.50;5127014;27;20014;-80
2024/01/08 03:56:18;;;;;;;;;;;;;;;9.82;100.00;97337.03;5135391;27;19911;-80
2024/01/08 03:58:44;;;;;;;;;;;;;;;9.89;100.00;97340.69;5119473;27;19972;-80
2024/01/08 04:01:09;;;;;;;;;;;;;;;9.82;100.00;97341.03;5120262;27;19907;-81
2024/01/08 04:03:34;;;;;;;;;;;;;;;9.87;100.00;97343.16;5133509;27;19911;-80
2024/01/08 04:05:59;;;;;;;;;;;;;;;9.84;100.00;97347.59;5113550;28;19912;-80
2024/01/08 04:08:25;;;;;;;;;;;;;;;9.74;100.00;97349.63;5128323;27;20277;-80
2024/01/08 04:10:50;;;;;;;;;;;;;;;9.78;100.00;97347.47;5133894;27;19923;-81
2024/01/08 04:13:16;;;;;;;;;;;;;;;9.78;100.00;97354.97;5135026;27;19911;-80
2024/01/08 04:15:41;;;;;;;;;;;;;;;9.74;100.00;97360.66;5132924;27;19932;-80
2024/01/08 04:18:07;;;;;;;;;;;;;;;9.74;100.00;97366.19;5133651;27;19965;-80
2024/01/08 04:20:32;;;;;;;;;;;;;;;9.83;100.00;97368.13;5133971;27;20372;-80
2024/01/08 04:22:58;;;;;;;;;;;;;;;9.84;100.00;97368.91;5125511;27;19908;-81
2024/01/08 04:25:23;;;;;;;;;;;;;;;9.79;100.00;97373.81;5132253;27;20002;-80
2024/01/08 04:27:48;;;;;;;;;;;;;;;9.81;100.00;97373.38;5135023;27;20316;-80
2024/01/08 04:30:14;;;;;;;;;;;;;;;9.75;100.00;97372.47;5124843;27;20296;-80
2024/01/08 04:32:39;;;;;;;;;;;;;;;9.67;100.00;97377.53;5120689;27;19911;-80
2024/01/08 04:35:05;;;;;;;;;;;;;;;9.72;100.00;97371.38;5117929;27;19915;-81
2024/01/08 04:37:30;;;;;;;;;;;;;;;9.70;100.00;97384.13;5133550;27;19915;-80
2024/01/08 04:39:56;;;;;;;;;;;;;;;9.68;100.00;97386.56;5132663;27;19914;-80
2024/01/08 04:42:21;;;;;;;;;;;;;;;9.73;100.00;97383.94;5120593;27;19943;-80
2024/01/08 04:44:47;;;;;;;;;;;;;;;9.70;100.00;97400.66;5112253;28;19911;-81
2024/01/08 04:47:12;;;;;;;;;;;;;;;9.78;100.00;97393.59;5125342;27;19911;-81
2024/01/08 04:49:37;;;;;;;;;;;;;;;9.80;100.00;97402.94;5113801;27;19911;-80
2024/01/08 04:52:03;;;;;;;;;;;;;;;9.84;100.00;97402.00;5113194;28;19922;-80
2024/01/08 04:54:28;;;;;;;;;;;;;;;9.85;100.00;97420.09;5125927;27;19918;-80
2024/01/08 04:56:56;;;;;;;;;;;;;;;9.73;100.00;97419.03;5112157;28;20363;-80
2024/01/08 04:59:23;;;;;;;;;;;;;;;9.68;100.00;97425.94;5126765;27;19914;-80
2024/01/08 05:01:49;;;;;;;;;;;;;;;9.64;100.00;97430.84;5112258;28;20380;-81
2024/01/08 05:04:14;;;;;;;;;;;;;;;9.62;100.00;97429.78;5111846;28;19994;-81
2024/01/08 05:06:40;;;;;;;;;;;;;;;9.60;100.00;97440.50;5124711;27;20365;-80
2024/01/08 05:09:05;;;;;;;;;;;;;;;9.62;100.00;97438.03;5132024;27;20277;-80
2024/01/08 05:11:30;;;;;;;;;;;;;;;9.60;100.00;97451.50;5131954;27;19918;-81
2024/01/08 05:13:55;;;;;;;;;;;;;;;9.69;100.00;97457.03;5112919;27;19971;-80
2024/01/08 05:16:21;;;;;;;;;;;;;;;9.73;100.00;97457.66;5123387;27;19914;-81
2024/01/08 05:18:46;;;;;;;;;;;;;;;9.71;100.00;97465.59;5133086;27;19911;-81
2024/01/08 05:21:13;;;;;;;;;;;;;;;9.76;100.00;97465.75;5132003;27;20348;-80
2024/01/08 05:23:38;;;;;;;;;;;;;;;9.74;100.00;97470.22;5131972;27;19934;-80
2024/01/08 05:26:04;;;;;;;;;;;;;;;9.70;100.00;97469.63;5131796;27;20364;-80
2024/01/08 05:28:29;;;;;;;;;;;;;;;9.72;100.00;97476.19;5117799;27;19907;-80
2024/01/08 05:30:54;;;;;;;;;;;;;;;9.66;100.00;97477.25;5132027;27;19957;-80
2024/01/08 05:33:20;;;;;;;;;;;;;;;9.65;100.00;97478.47;5126687;27;20394;-80
2024/01/08 05:35:45;;;;;;;;;;;;;;;9.62;100.00;97480.19;5122856;27;19911;-80
2024/01/08 05:38:11;;;;;;;;;;;;;;;9.59;100.00;97492.09;5127123;27;19911;-80
2024/01/08 05:40:36;;;;;;;;;;;;;;;9.54;100.00;97484.44;5122997;27;19967;-80
2024/01/08 05:43:03;;;;;;;;;;;;;;;9.62;100.00;97493.19;5131399;27;19912;-80
2024/01/08 05:45:28;;;;;;;;;;;;;;;9.55;100.00;97499.78;5130583;27;19954;-80
2024/01/08 05:47:54;;;;;;;;;;;;;;;9.50;100.00;97505.91;5131589;27;19916;-80
2024/01/08 05:50:20;;;;;;;;;;;;;;;9.52;100.00;97510.97;5131440;27;19911;-81
2024/01/08 05:52:46;;;;;;;;;;;;;;;9.51;100.00;97509.44;5126417;27;19928;-80
2024/01/08 05:55:14;;;;;;;;;;;;;;;9.50;100.00;97518.91;5122644;27;20285;-80
2024/01/08 05:57:40;;;;;;;;;;;;;;;9.54;100.00;97516.78;5111553;27;19908;-80
2024/01/08 06:00:05;;;;;;;;;;;;;;;9.43;100.00;97531.00;5124363;27;20395;-80
2024/01/08 06:02:31;;;;;;;;;;;;;;;9.40;100.00;97531.94;5116593;27;19918;-80
2024/01/08 06:04:56;;;;;;;;;;;;;;;9.31;100.00;97532.69;5132775;27;19911;-80
2024/01/08 06:07:22;;;;;;;;;;;;;;;9.27;100.00;97534.81;5131036;27;19968;-80
2024/01/08 06:09:47;;;;;;;;;;;;;;;9.35;100.00;97540.78;5119666;27;20472;-80
2024/01/08 06:12:12;;;;;;;;;;;;;;;9.38;100.00;97540.66;5125612;27;19919;-80
2024/01/08 06:14:38;;;;;;;;;;;;;;;9.34;100.00;97556.56;5121461;27;19907;-80
2024/01/08 06:17:04;;;;;;;;;;;;;;;9.34;100.00;97556.56;5113657;27;19908;-80
2024/01/08 06:19:29;;;;;;;;;;;;;;;9.37;100.00;97558.41;5112039;28;19907;-81
2024/01/08 06:21:54;;;;;;;;;;;;;;;9.34;100.00;97564.09;5125628;28;19989;-80
2024/01/08 06:24:20;;;;;;;;;;;;;;;9.33;100.00;97563.31;5121106;27;19911;-80
2024/01/08 06:26:45;;;;;;;;;;;;;;;9.29;100.00;97570.94;5130861;27;19914;-80
2024/01/08 06:29:11;;;;;;;;;;;;;;;9.30;100.00;97574.47;5132381;27;19930;-80
2024/01/08 06:31:36;;;;;;;;;;;;;;;9.33;100.00;97581.84;5117945;27;19919;-80
2024/01/08 06:34:02;;;;;;;;;;;;;;;9.39;100.00;97591.03;5122454;27;20332;-80
2024/01/08 06:36:27;;;;;;;;;;;;;;;9.38;100.00;97595.78;5127004;27;20585;-80
2024/01/08 06:38:52;;;;;;;;;;;;;;;9.37;100.00;97601.75;5130921;27;20007;-80
2024/01/08 06:41:18;;;;;;;;;;;;;;;9.35;100.00;97607.72;5130940;27;19911;-79
2024/01/08 06:43:43;;;;;;;;;;;;;;;9.40;100.00;97609.13;5122569;27;19916;-81
2024/01/08 06:46:08;;;;;;;;;;;;;;;9.39;100.00;97604.84;5112930;28;20346;-80
2024/01/08 06:48:34;;;;;;;;;;;;;;;9.45;100.00;97613.28;5131197;27;19907;-81
2024/01/08 06:51:00;;;;;;;;;;;;;;;9.46;100.00;97626.59;5116496;28;19922;-80
2024/01/08 06:53:26;;;;;;;;;;;;;;;9.47;100.00;97625.34;5131086;27;20441;-80
2024/01/08 06:55:51;;;;;;;;;;;;;;;9.49;100.00;97631.19;5114749;27;19911;-80
2024/01/08 06:58:16;;;;;;;;;;;;;;;9.50;100.00;97631.97;5110423;28;20101;-81
2024/01/08 07:00:41;;;;;;;;;;;;;;;9.49;100.00;97644.22;5127530;28;20320;-80
2024/01/08 07:03:07;;;;;;;;;;;;;;;9.58;100.00;97649.78;5131168;27;19911;-80
2024/01/08 07:05:32;;;;;;;;;;;;;;;9.54;100.00;97652.66;5128603;27;19982;-80
2024/01/08 07:07:59;;;;;;;;;;;;;;;9.55;100.00;97662.47;5110624;28;19908;-80
2024/01/08 07:10:25;;;;;;;;;;;;;;;9.59;100.00;97668.59;5113269;28;19907;-80
2024/01/08 07:12:50;;;;;;;;;;;;;;;9.63;100.00;97669.25;5114294;28;19999;-80
2024/01/08 07:15:34;;;;;;;;;;;;;;;9.62;100.00;97669.69;5129976;27;19911;-81
2024/01/08 07:17:59;;;;;;;;;;;;;;;9.64;100.00;97675.53;5136230;27;19964;-80
2024/01/08 07:20:24;;;;;;;;;;;;;;;9.69;100.00;97672.16;5134024;27;19907;-80
2024/01/08 07:22:50;;;;;;;;;;;;;;;9.66;100.00;97679.34;5135810;27;19907;-80
2024/01/08 07:25:15;;;;;;;;;;;;;;;9.62;100.00;97689.00;5121553;27;20331;-82
2024/01/08 07:27:40;;;;;;;;;;;;;;;9.67;100.00;97691.91;5134518;27;19942;-81
2024/01/08 07:30:09;;;;;;;;;;;;;;;9.73;100.00;97690.09;5134328;27;20334;-80
2024/01/08 07:32:34;;;;;;;;;;;;;;;9.74;100.00;97696.38;5134324;27;19913;-80
2024/01/08 07:35:01;;;;;;;;;;;;;;;9.77;100.00;97700.97;5134437;27;19907;-81
2024/01/08 07:37:26;;;;;;;;;;;;;;;9.74;100.00;97704.66;5123599;27;19918;-81
2024/01/08 07:39:51;;;;;;;;;;;;;;;9.76;100.00;97707.75;5118923;27;19907;-79
2024/01/08 07:42:16;;;;;;;;;;;;;;;9.87;100.00;97710.84;5127480;27;19912;-79
2024/01/08 07:44:42;;;;;;;;;;;;;;;9.94;100.00;97715.31;5119643;28;20361;-82
2024/01/08 07:47:07;;;;;;;;;;;;;;;9.90;100.00;97723.69;5129832;27;19907;-80
2024/01/08 07:49:32;;;;;;;;;;;;;;;9.88;100.00;97728.16;5133643;27;20375;-81
2024/01/08 07:51:58;;;;;;;;;;;;;;;9.93;100.00;97731.09;5133433;27;19994;-81
2024/01/08 07:54:23;;;;;;;;;;;;;;;10.04;100.00;97730.66;5121323;27;20380;-80
2024/01/08 07:56:48;;;;;;;;;;;;;;;9.98;100.00;97738.00;5124279;27;19947;-80
2024/01/08 07:59:13;;;;;;;;;;;;;;;10.18;100.00;97735.63;5114493;28;19907;-80
2024/01/08 08:01:39;;;;;;;;;;;;;;;10.19;100.00;97743.44;5113317;28;19914;-79
2024/01/08 08:04:04;;;;;;;;;;;;;;;10.26;100.00;97744.34;5129402;27;20368;-82
2024/01/08 08:06:30;;;;;;;;;;;;;;;10.25;100.00;97751.13;5123589;27;19916;-82
2024/01/08 08:08:56;;;;;;;;;;;;;;;10.15;100.00;97759.34;5131600;27;19911;-80
2024/01/08 08:11:21;;;;;;;;;;;;;;;10.19;100.00;97759.22;5133148;27;20010;-81
2024/01/08 08:13:46;;;;;;;;;;;;;;;10.18;100.00;97764.00;5119632;27;20399;-80
2024/01/08 08:16:11;;;;;;;;;;;;;;;10.22;100.00;97771.34;5132900;27;20059;-81
2024/01/08 08:18:39;;;;;;;;;;;;;;;10.39;100.00;97767.09;5127996;27;20304;-81
2024/01/08 08:21:04;;;;;;;;;;;;;;;10.43;100.00;97768.47;5125328;27;20351;-81
2024/01/08 08:23:30;;;;;;;;;;;;;;;10.41;100.00;97779.22;5113017;28;19973;-80
2024/01/08 08:25:56;;;;;;;;;;;;;;;10.57;100.00;97783.69;5123314;27;19995;-80
2024/01/08 08:28:21;;;;;;;;;;;;;;;10.52;100.00;97787.06;5133146;27;19998;-81
2024/01/08 08:30:46;;;;;;;;;;;;;;;10.56;100.00;97793.97;5122415;27;20022;-80
2024/01/08 08:33:12;;;;;;;;;;;;;;;10.67;100.00;97798.28;5104329;27;19922;-79
2024/01/08 08:35:38;;;;;;;;;;;;;;;10.65;100.00;97811.78;5133501;27;20023;-81
2024/01/08 08:38:03;;;;;;;;;;;;;;;10.72;100.00;97808.72;5119464;27;19911;-80
2024/01/08 08:40:28;;;;;;;;;;;;;;;10.61;100.00;97812.69;5121360;27;19918;-80
2024/01/08 08:42:54;;;;;;;;;;;;;;;10.60;100.00;97822.22;5125245;27;19912;-79
2024/01/08 08:45:19;;;;;;;;;;;;;;;10.63;100.00;97819.75;5121649;27;19911;-80
2024/01/08 08:47:45;;;;;;;;;;;;;;;10.71;100.00;97824.53;5131596;27;19917;-80
2024/01/08 08:50:12;;;;;;;;;;;;;;;10.68;100.00;97825.44;5122353;27;19934;-80
2024/01/08 08:52:37;;;;;;;;;;;;;;;10.74;100.00;97831.13;5128793;27;19927;-81
2024/01/08 08:55:04;;;;;;;;;;;;;;;10.71;100.00;97840.34;5122318;27;20384;-80
2024/01/08 08:57:29;;;;;;;;;;;;;;;10.63;100.00;97839.84;5128952;27;19908;-82
2024/01/08 08:59:55;;;;;;;;;;;;;;;10.56;100.00;97838.16;5132222;27;20393;-80
2024/01/08 09:02:20;;;;;;;;;;;;;;;10.50;100.00;97845.50;5131966;27;19915;-80
2024/01/08 09:04:45;;;;;;;;;;;;;;;10.27;100.00;97854.34;5121906;27;20402;-80
2024/01/08 09:07:11;;;;;;;;;;;;;;;10.13;100.00;97849.34;5111957;28;20351;-80
2024/01/08 09:09:36;;;;;;;;;;;;;;;10.10;100.00;97851.03;5111355;28;19911;-80
2024/01/08 09:12:01;;;;;;;;;;;;;;;10.13;100.00;97860.38;5113829;27;20285;-80
2024/01/08 09:14:27;;;;;;;;;;;;;;;10.15;100.00;97860.69;5113167;28;19922;-80
2024/01/08 09:16:52;;;;;;;;;;;;;;;10.15;100.00;97858.72;5116998;27;20014;-81
2024/01/08 09:19:18;;;;;;;;;;;;;;;10.17;100.00;97861.06;5120160;27;20036;-79
2024/01/08 09:21:47;;;;;;;;;;;;;;;10.10;100.00;97862.06;5129976;27;19915;-79
2024/01/08 09:24:13;;;;;;;;;;;;;;;10.10;100.00;97862.06;5112770;28;20403;-80
2024/01/08 09:26:39;;;;;;;;;;;;;;;10.20;100.00;97868.41;5124612;27;19911;-81
2024/01/08 09:29:05;;;;;;;;;;;;;;;10.18;100.00;97868.88;5120504;27;20498;-79
2024/01/08 09:31:31;;;;;;;;;;;;;;;10.15;100.00;97863.47;5128895;27;19915;-81
2024/01/08 09:33:56;;;;;;;;;;;;;;;10.20;100.00;97871.19;5120501;27;20296;-81
2024/01/08 09:36:22;;;;;;;;;;;;;;;10.08;100.00;97864.50;5132447;27;20059;-81
2024/01/08 09:38:47;;;;;;;;;;;;;;;10.16;100.00;97870.53;5132061;27;20444;-81
2024/01/08 09:41:12;;;;;;;;;;;;;;;10.15;100.00;97868.97;5133285;27;20428;-83
2024/01/08 09:43:39;;;;;;;;;;;;;;;10.13;100.00;97863.91;5132089;27;19934;-80
2024/01/08 09:46:05;;;;;;;;;;;;;;;10.24;100.00;97874.59;5115946;27;20304;-82
2024/01/08 09:48:31;;;;;;;;;;;;;;;10.10;100.00;97878.63;5111694;28;20365;-79
2024/01/08 09:50:59;;;;;;;;;;;;;;;10.08;100.00;97872.00;5127060;27;20405;-80
2024/01/08 09:53:26;;;;;;;;;;;;;;;10.08;100.00;97878.31;5122148;27;19916;-80
2024/01/08 09:55:53;;;;;;;;;;;;;;;10.07;100.00;97876.00;5124645;27;19922;-79
2024/01/08 09:58:18;;;;;;;;;;;;;;;10.00;100.00;97884.56;5107522;28;20009;-80
2024/01/08 10:00:43;;;;;;;;;;;;;;;10.09;100.00;97882.59;5116413;27;20016;-80
2024/01/08 10:03:08;;;;;;;;;;;;;;;10.03;100.00;97878.13;5103606;27;19918;-79
2024/01/08 10:05:34;;;;;;;;;;;;;;;9.99;100.00;97883.03;5131697;27;19912;-81
2024/01/08 10:08:03;;;;;;;;;;;;;;;10.00;100.00;97885.34;5110398;27;20027;-81
2024/01/08 10:10:31;;;;;;;;;;;;;;;9.87;100.00;97884.66;5115894;27;19990;-80
2024/01/08 10:12:56;;;;;;;;;;;;;;;9.82;100.00;97887.22;5111668;28;19908;-81
2024/01/08 10:15:22;;;;;;;;;;;;;;;9.60;100.00;97885.22;5118303;27;19968;-82
2024/01/08 10:17:48;;;;;;;;;;;;;;;9.61;100.00;97888.75;5119581;27;19951;-80
2024/01/08 10:20:14;;;;;;;;;;;;;;;9.65;100.00;97898.44;5101255;28;20300;-81
2024/01/08 10:22:39;;;;;;;;;;;;;;;9.48;100.00;97899.84;5113190;28;19912;-83
2024/01/08 10:25:06;;;;;;;;;;;;;;;9.41;100.00;97897.34;5118293;27;19926;-79
2024/01/08 10:27:31;;;;;;;;;;;;;;;9.49;100.00;97897.88;5131393;27;20457;-80
2024/01/08 10:29:57;;;;;;;;;;;;;;;9.51;100.00;97903.72;5116927;27;19907;-80
2024/01/08 10:32:25;;;;;;;;;;;;;;;9.36;100.00;97906.97;5111141;28;19912;-81
2024/01/08 10:34:51;;;;;;;;;;;;;;;9.49;100.00;97911.66;5113517;28;19915;-81
2024/01/08 10:37:17;;;;;;;;;;;;;;;9.38;100.00;97907.31;5114726;27;19908;-79
2024/01/08 10:39:44;;;;;;;;;;;;;;;9.45;100.00;97911.78;5120631;28;19946;-80
2024/01/08 10:42:11;;;;;;;;;;;;;;;9.43;100.00;97905.19;5111196;28;20432;-80
2024/01/08 10:44:36;;;;;;;;;;;;;;;9.46;100.00;97909.81;5121456;27;20360;-80
2024/01/08 10:47:06;;;;;;;;;;;;;;;9.39;100.00;97908.84;5107977;27;20395;-79
2024/01/08 10:49:32;;;;;;;;;;;;;;;9.37;100.00;97916.00;5123985;27;19911;-80
2024/01/08 10:51:59;;;;;;;;;;;;;;;9.28;100.00;97922.19;5124612;27;20050;-81
2024/01/08 10:54:27;;;;;;;;;;;;;;;9.26;100.00;97918.38;5129947;27;19919;-79
2024/01/08 10:56:57;;;;;;;;;;;;;;;9.12;100.00;97916.88;5134188;27;19915;-82
2024/01/08 10:59:23;;;;;;;;;;;;;;;9.18;100.00;97915.09;5112147;27;19919;-79
2024/01/08 11:01:50;;;;;;;;;;;;;;;9.11;100.00;97918.06;5129034;27;19923;-81
2024/01/08 11:04:15;;;;;;;;;;;;;;;9.20;100.00;97914.66;5131134;27;19916;-81
2024/01/08 11:06:42;;;;;;;;;;;;;;;9.01;100.00;97916.47;5116624;27;19915;-82
2024/01/08 11:09:26;;;;;;;;;;;;;;;9.02;100.00;97915.25;5131719;27;19947;-80
2024/01/08 11:11:51;;;;;;;;;;;;;;;9.09;100.00;97922.50;5126620;27;19924;-81
2024/01/08 11:14:17;;;;;;;;;;;;;;;9.03;100.00;97918.78;5124481;27;19915;-81
2024/01/08 11:16:42;;;;;;;;;;;;;;;8.95;100.00;97921.78;5130529;27;19922;-80
2024/01/08 11:19:17;;;;;;;;;;;;;;;8.99;100.00;97925.16;5134280;27;19915;-81
2024/01/08 11:21:42;;;;;;;;;;;;;;;8.96;100.00;97923.31;5134652;27;19911;-80
2024/01/08 11:24:08;;;;;;;;;;;;;;;8.90;100.00;97925.09;5133244;27;19922;-81
2024/01/08 11:26:39;;;;;;;;;;;;;;;8.82;100.00;97931.25;5121003;27;19919;-81
2024/01/08 11:29:06;;;;;;;;;;;;;;;8.78;100.00;97928.63;5121761;27;19912;-80
2024/01/08 11:31:53;;;;;;;;;;;;;;;8.81;100.00;97927.72;5118290;27;20013;-80
2024/01/08 11:34:18;;;;;;;;;;;;;;;8.75;100.00;97926.75;5108715;28;19923;-82
2024/01/08 11:36:45;;;;;;;;;;;;;;;8.79;100.00;97932.16;5116430;27;19920;-80
2024/01/08 11:39:15;;;;;;;;;;;;;;;8.76;100.00;97939.31;5115197;27;20014;-79
2024/01/08 11:41:41;;;;;;;;;;;;;;;8.71;100.00;97936.34;5116422;27;19920;-81
2024/01/08 11:44:06;;;;;;;;;;;;;;;8.67;100.00;97941.97;5124262;27;20025;-81
2024/01/08 11:46:34;;;;;;;;;;;;;;;8.57;100.00;97943.06;5124259;27;20001;-80
2024/01/08 11:48:59;;;;;;;;;;;;;;;8.62;100.00;97948.03;5122977;27;19915;-80
2024/01/08 11:51:25;;;;;;;;;;;;;;;8.51;100.00;97944.84;5125331;27;20313;-81
2024/01/08 11:53:51;;;;;;;;;;;;;;;8.53;100.00;97945.94;5114888;27;19919;-80
2024/01/08 11:56:17;;;;;;;;;;;;;;;8.64;100.00;97945.59;5113488;27;20470;-82
2024/01/08 11:58:46;;;;;;;;;;;;;;;8.67;100.00;97952.22;5117795;27;19916;-79
2024/01/08 12:01:18;;;;;;;;;;;;;;;8.58;100.00;97950.13;5115914;27;19920;-80
2024/01/08 12:03:43;;;;;;;;;;;;;;;8.57;100.00;97957.59;5111338;27;19919;-79
2024/01/08 12:06:09;;;;;;;;;;;;;;;8.55;100.00;97956.53;5104892;27;19920;-81
2024/01/08 12:08:38;;;;;;;;;;;;;;;8.49;100.00;97967.31;5130200;27;20002;-81
2024/01/08 12:11:03;;;;;;;;;;;;;;;8.50;100.00;97962.56;5126054;27;19919;-82
2024/01/08 12:13:29;;;;;;;;;;;;;;;8.48;100.00;97967.75;5130341;27;19911;-82
2024/01/08 12:15:54;;;;;;;;;;;;;;;8.51;100.00;97967.63;5127633;27;19912;-80
2024/01/08 12:18:19;;;;;;;;;;;;;;;8.42;100.00;97966.75;5115799;27;19912;-81
2024/01/08 12:20:44;;;;;;;;;;;;;;;8.47;100.00;97974.47;5119510;27;19912;-82
2024/01/08 12:23:10;;;;;;;;;;;;;;;8.45;100.00;97972.16;5119241;27;19912;-81
2024/01/08 12:25:35;;;;;;;;;;;;;;;8.40;100.00;97977.44;5117466;27;20006;-82
2024/01/08 12:28:01;;;;;;;;;;;;;;;8.33;100.00;97983.13;5118994;27;19996;-80
2024/01/08 12:30:26;;;;;;;;;;;;;;;8.34;100.00;97981.94;5114787;28;19912;-82
2024/01/08 12:32:52;;;;;;;;;;;;;;;8.41;100.00;97984.47;5107964;27;19923;-79